This is the latest recevied weather packets stored in our database for station/object N7TUG. If no packets are shown the sender has not sent any weather packets the latest 10 day(s).
| Time | Temp. | Humidity | Pressure | Rain* | Wind** | Luminosity | Snow |
|---|---|---|---|---|---|---|---|
| 1777909516 | 18.33° C | 68% | 1010.1 hPa | 0 mm | - | 360 W/m² | - |
| 1777907716 | 16.67° C | 73% | 1010 hPa | 0 mm | - | 277 W/m² | - |
| 1777905315 | 15.56° C | 73% | 1009.8 hPa | 0 mm | - | 162 W/m² | - |
| 1777902915 | 16.11° C | 73% | 1009.5 hPa | 0 mm | - | 80 W/m² | - |
| 1777901736 | 13.89° C | 76% | 1009.4 hPa | 0 mm | - | 56 W/m² | - |
| 1777896315 | 13.33° C | 77% | 1009 hPa | 0 mm | - | 18 W/m² | - |
| 1777895116 | 13.33° C | 77% | 1009.1 hPa | 0 mm | - | 18 W/m² | - |
| 1777892156 | 13.33° C | 75% | 1009 hPa | 0 mm | - | 18 W/m² | - |
| 1777889117 | 13.89° C | 76% | 1009 hPa | 0 mm | - | 18 W/m² | - |
| 1777887935 | 13.89° C | 75% | 1008.9 hPa | 0 mm | - | 18 W/m² | - |
| 1777880116 | 16.11° C | 68% | 1008.8 hPa | 0 mm | - | 18 W/m² | - |
| 1777877715 | 16.67° C | 67% | 1008.8 hPa | 0 mm | - | 18 W/m² | - |
| 1777872335 | 18.33° C | 63% | 1008.6 hPa | 0 mm | - | 18 W/m² | - |
| 1777868715 | 20° C | 56% | 1008.7 hPa | 0 mm | - | 18 W/m² | - |
| 1777868115 | 20.56° C | 54% | 1008.6 hPa | 0 mm | - | 18 W/m² | - |
| 1777866316 | 22.22° C | 53% | 1008.4 hPa | 0 mm | - | 19 W/m² | - |
| 1777864515 | 23.33° C | 49% | 1008.4 hPa | 0 mm | - | 28 W/m² | - |
| 1777862715 | 24.44° C | 48% | 1008.5 hPa | 0 mm | - | 48 W/m² | - |
| 1777860935 | 24.44° C | 47% | 1008.6 hPa | 0 mm | - | 91 W/m² | - |
| 1777856735 | 23.89° C | 49% | 1009.1 hPa | 0 mm | - | 267 W/m² | - |
| 1777854915 | 25° C | 50% | 1009.3 hPa | 0 mm | - | 359 W/m² | - |
| 1777848915 | 24.44° C | 54% | 1010.4 hPa | 0 mm | - | 651 W/m² | - |
| 1777837515 | 22.22° C | 59% | 1012.5 hPa | 0 mm | - | 880 W/m² | - |
| 1777834515 | 21.11° C | 64% | 1013.1 hPa | 0 mm | - | 834 W/m² | - |
| 1777833335 | 20.56° C | 65% | 1013.1 hPa | 0 mm | - | 802 W/m² | - |
* Rain latest hour (hover to see other rain measurements)
** Current wind speed in m/s (hover to see current wind gust speed)